Latest Coastal Weather Observations for St Helens

IDT60701

Issued at 9:03 am EDT Saturday 21 January 2017 (issued every 10 minutes, with the page automatically refreshed every 10 minutes)

About coastal observations | Map of coastal stations | Coastal observations for TAS | Marine services | Other Formats
Station Details ID: 092120 Name: ST HELENS AERODROME Lat: -41.34 Lon: 148.28 Height: 48.0 m
Data from the previous 72 hours. | See also: Recent months at St Helens
Date/Time
EDT
Temp
°C
Wind Pressure Rain since
9am
mm
Weather Cloud Vis
km
Sea
Height
m
Swell
Dir  Spd
kts
Gust
kts
hPa Trend Height
m
Period
s
Dir
21/09:00am 16.3 SSW 6 11 1010.1 - 55.2 - - 10 - - - -
21/08:30am 15.2 SW 5 9 1010.0 - 55.2 - - 10 - - - -
21/08:00am 14.2 W 3 5 1009.6 - 55.2 - - 10 - - - -
21/07:30am 13.9 S 3 6 1009.1 - 55.2 - - 10 - - - -
21/07:00am 12.0 SSW 4 7 1008.7 - 55.2 - - 10 - - - -
21/06:30am 11.4 SSE 4 8 1008.0 - 55.2 - - 10 - - - -
21/06:00am 10.9 WSW 1 4 1007.4 - 55.2 - - 10 - - - -
21/05:30am 11.3 SSW 6 10 1006.9 - 55.2 - - 10 - - - -
21/05:00am 11.7 SSW 8 13 1006.5 - 55.2 - - 10 - - - -
21/04:30am 12.5 S 6 13 1006.0 - 55.2 - - 10 - - - -
21/04:00am 12.5 SSW 8 12 1005.5 - 55.2 - - 10 - - - -
21/03:30am 12.7 SSW 9 13 1005.0 - 55.2 - - 10 - - - -
21/03:00am 12.7 SSW 7 10 1004.6 - 55.2 - - 10 - - - -
21/02:30am 13.2 SSW 11 17 1004.8 - 55.2 - - 10 - - - -
21/02:00am 12.9 SSW 10 15 1004.6 - 55.2 - Partly cloudy 10 - - - -
21/01:30am 11.7 CALM 0 1 1004.6 - 55.2 - Cloudy 10 - - - -
21/01:00am 11.7 NNW 4 6 1004.4 - 55.2 - Partly cloudy 10 - - - -
21/12:30am 12.5 W 2 4 1004.4 - 55.2 - Partly cloudy 10 - - - -
21/12:00am 11.9 WSW 3 4 1004.2 - 55.2 - Mostly clear 10 - - - -
 
Date/Time
EDT
Temp
°C
Wind Pressure Rain since
9am
mm
Weather Cloud Vis
km
Sea
Height
m
Swell
Dir  Spd
kts
Gust
kts
hPa Trend Height
m
Period
s
Dir
20/11:30pm 12.4 W 3 5 1004.1 - 55.2 - Partly cloudy 10 - - - -
20/11:00pm 12.6 SSW 5 6 1003.8 - 55.2 - Partly cloudy 10 - - - -
20/10:30pm 13.0 SSW 4 7 1003.3 - 55.2 - - 10 - - - -
20/10:00pm 12.8 S 5 6 1002.9 - 55.2 - - 10 - - - -
20/09:30pm 13.9 S 7 10 1002.7 - 55.2 - Partly cloudy 10 - - - -
20/09:00pm 14.2 SSW 7 13 1001.9 - 55.2 - - 10 - - - -
20/08:30pm 14.8 S 9 15 1000.9 - 55.2 - - 10 - - - -
20/08:00pm 15.0 S 8 14 1000.7 - 55.2 - - 10 - - - -
20/07:30pm 15.6 S 10 17 1000.1 - 55.2 - - 10 - - - -
20/07:00pm 16.6 S 8 18 999.1 - 55.2 - - 10 - - - -
20/06:30pm 16.8 SSW 12 21 998.4 - 55.2 - Partly cloudy 10 - - - -
20/06:00pm 16.7 S 12 23 997.2 - 55.2 - Cloudy 10 - - - -
20/05:30pm 14.4 S 11 23 996.5 - 55.2 - Partly cloudy 10 - - - -
20/05:10pm 13.6 S 11 19 996.2 - 55.2 - Cloudy 10 - - - -
20/05:00pm 13.4 S 12 20 996.0 - 55.2 - Partly cloudy 10 - - - -
20/04:44pm 13.5 S 15 29 995.5 - 55.2 - Partly cloudy 10 - - - -
20/04:30pm 14.0 S 15 24 995.1 - 55.2 - Partly cloudy 10 - - - -
20/04:21pm 14.1 S 17 29 994.9 - 54.8 - Partly cloudy 10 - - - -
20/04:00pm 14.0 S 16 28 994.6 - 54.8 - Partly cloudy 10 - - - -
20/03:45pm 13.7 S 18 30 994.4 - 54.8 - Partly cloudy 10 - - - -
20/03:30pm 13.6 S 18 31 993.9 - 54.8 - Partly cloudy 10 - - - -
20/03:00pm 13.1 S 19 32 993.4 - 54.6 - Cloudy 8 - - - -
20/02:44pm 13.1 S 20 36 993.4 - 54.6 - Partly cloudy 9 - - - -
20/02:30pm 13.0 S 17 30 993.1 - 54.6 - Partly cloudy 4 - - - -
20/02:26pm 13.1 S 15 28 993.1 - 54.4 - Partly cloudy 5 - - - -
20/02:00pm 12.8 S 16 31 992.4 - 53.8 - Cloudy 10 - - - -
20/01:30pm 13.0 S 22 35 991.7 - 53.8 - Partly cloudy 10 - - - -
20/01:00pm 12.7 S 26 41 990.7 - 53.8 - Partly cloudy 10 - - - -
20/12:42pm 12.9 S 24 38 990.8 - 53.8 - Partly cloudy 6 - - - -
20/12:30pm 12.9 S 23 41 990.8 - 53.8 - Cloudy 5 - - - -
20/12:00pm 13.8 S 25 44 989.8 - 53.4 - Cloudy 3 - - - -
20/11:30am 14.0 S 21 38 990.3 - 52.2 - Cloudy 1 - - - -
20/11:27am 14.0 S 20 38 990.4 - 51.8 - Cloudy 1 - - - -
20/11:02am 14.3 S 17 27 990.8 - 45.8 - Partly cloudy 0.8 - - - -
20/11:00am 14.3 S 18 26 990.8 - 44.8 - Partly cloudy 0.8 - - - -
20/10:30am 14.7 S 17 28 991.2 - 31.0 - Partly cloudy 0.8 - - - -
20/10:09am 15.3 SSE 15 26 991.3 - 20.4 - Cloudy 2 - - - -
20/10:00am 16.0 SSE 11 18 991.5 - 17.4 - Cloudy 2 - - - -
20/09:30am 16.0 SE 8 13 993.0 - 9.8 - Cloudy 2 - - - -
20/09:00am 16.0 SE 7 12 994.0 - 31.6 - Mostly cloudy 2 - - - -
20/08:30am 15.9 E 9 16 994.9 - 23.0 - Cloudy 3 - - - -
20/08:04am 15.9 ENE 15 21 995.5 - 17.6 - Cloudy 5 - - - -
20/08:00am 15.9 ENE 16 26 995.4 - 16.8 - Cloudy 6 - - - -
20/07:30am 15.6 ENE 19 27 995.2 - 15.4 - Cloudy 6 - - - -
20/07:00am 15.5 ENE 18 25 996.4 - 13.8 - Cloudy 7 - - - -
20/06:30am 15.3 ENE 17 29 997.5 - 12.0 - Cloudy 7 - - - -
20/06:24am 15.2 ENE 15 29 997.6 - 11.8 - Cloudy 6 - - - -
20/06:21am 15.2 ENE 14 22 997.8 - 11.4 - Partly cloudy 6 - - - -
20/06:00am 15.2 NE 11 16 998.6 - 9.2 - Cloudy 4 - - - -
20/05:59am 15.2 NE 11 16 998.8 - 9.0 - Cloudy 4 - - - -
20/05:55am 15.2 NE 10 16 999.1 - 8.4 - Cloudy 5 - - - -
20/05:52am 15.3 NE 10 18 999.2 - 7.8 - Cloudy 5 - - - -
20/05:30am 15.3 NE 3 6 1000.1 - 5.4 - Cloudy 4 - - - -
20/05:13am 15.5 NE 9 14 1000.7 - 2.0 - Cloudy 5 - - - -
20/05:00am 16.1 ENE 11 16 1001.2 - 0.0 - Cloudy 10 - - - -
20/04:30am 16.5 NE 9 13 1002.5 - 0.0 - Cloudy 10 - - - -
20/04:00am 16.4 NE 7 11 1003.7 - 0.0 - Cloudy 10 - - - -
20/03:30am 16.3 NE 7 10 1004.2 - 0.0 - Cloudy 10 - - - -
20/03:00am 16.2 NE 7 9 1005.5 - 0.0 - Mostly cloudy 10 - - - -
20/02:30am 16.0 NE 7 10 1006.3 - 0.0 - Partly cloudy 10 - - - -
20/02:00am 15.9 NE 9 12 1006.2 - 0.0 - Partly cloudy 10 - - - -
20/01:30am 15.6 NE 8 12 1006.8 - 0.0 - Partly cloudy 10 - - - -
20/01:00am 15.4 NE 7 10 1006.5 - 0.0 - Partly cloudy 10 - - - -
20/12:30am 15.0 NE 7 11 1007.4 - 0.0 - Partly cloudy 10 - - - -
20/12:00am 14.9 NE 6 9 1008.2 - 0.0 - Partly cloudy 10 - - - -
 
Date/Time
EDT
Temp
°C
Wind Pressure Rain since
9am
mm
Weather Cloud Vis
km
Sea
Height
m
Swell
Dir  Spd
kts
Gust
kts
hPa Trend Height
m
Period
s
Dir
19/11:30pm 14.8 NE 7 10 1008.9 - 0.0 - Partly cloudy 10 - - - -
19/11:00pm 14.8 NE 7 10 1009.2 - 0.0 - Partly cloudy 10 - - - -
19/10:30pm 14.6 NE 7 9 1010.0 - 0.0 - Partly cloudy 10 - - - -
19/10:00pm 14.5 NE 7 9 1010.8 - 0.0 - - 10 - - - -
19/09:30pm 14.4 NE 6 7 1011.3 - 0.0 - - 10 - - - -
19/09:00pm 14.8 NNE 5 7 1011.6 - 0.0 - Partly cloudy 10 - - - -
19/08:30pm 15.1 NNE 5 8 1012.0 - 0.0 - Cloudy 10 - - - -
19/08:00pm 15.4 NNE 6 9 1012.3 - 0.0 - Partly cloudy 10 - - - -
19/07:30pm 15.6 NE 6 7 1012.6 - 0.0 - Partly cloudy 10 - - - -
19/07:00pm 15.6 ENE 7 9 1012.7 - 0.0 - Cloudy 10 - - - -
19/06:30pm 15.6 ENE 7 10 1012.5 - 0.0 - Cloudy 10 - - - -
19/06:00pm 15.8 ENE 7 10 1012.9 - 0.0 - Mostly cloudy 10 - - - -
19/05:30pm 15.6 E 8 11 1012.9 - 0.0 - Cloudy 10 - - - -
19/05:00pm 15.7 E 8 12 1013.3 - 0.0 - Cloudy 10 - - - -
19/04:30pm 16.2 E 9 13 1014.1 - 0.0 - Partly cloudy 10 - - - -
19/04:00pm 16.4 E 8 14 1014.6 - 0.0 - Partly cloudy 10 - - - -
19/03:30pm 16.1 E 7 14 1014.9 - 0.0 - Partly cloudy 10 - - - -
19/03:00pm 16.2 ESE 6 10 1015.1 - 0.0 - Mostly clear 10 - - - -
19/02:30pm 17.9 ESE 8 14 1015.3 - 0.0 - - 10 - - - -
19/02:00pm 16.0 ESE 9 16 1015.7 - 0.0 - - 10 - - - -
19/01:30pm 17.2 E 9 14 1015.9 - 0.0 - Partly cloudy 10 - - - -
19/01:00pm 17.3 ESE 9 16 1016.3 - 0.0 - - 10 - - - -
19/12:30pm 17.5 SE 7 15 1016.7 - 0.0 - - 10 - - - -
19/12:00pm 16.6 SE 8 14 1016.8 - 0.0 - - 10 - - - -
19/11:30am 16.9 SE 7 15 1017.1 - 0.0 - - 10 - - - -
19/11:00am 15.9 SSE 10 17 1017.3 - 0.0 - - 10 - - - -
19/10:30am 15.5 SSE 10 17 1017.5 - 0.0 - Partly cloudy 10 - - - -
19/10:00am 14.8 SSE 9 16 1017.6 - 0.0 - Partly cloudy 10 - - - -
19/09:30am 14.8 S 9 15 1017.6 - 0.0 - Partly cloudy 10 - - - -
19/09:00am 14.9 S 8 14 1017.6 - 0.0 Fine Mostly clear 25 - - - -
19/08:30am 13.5 S 10 17 1017.8 - 0.0 - - 10 - - - -
19/08:00am 12.9 S 6 10 1017.6 - 0.0 - - 10 - - - -
19/07:30am 11.0 SW 2 5 1017.3 - 0.0 - - 10 - - - -
19/07:00am 10.3 SSW 5 7 1017.1 - 0.0 - - 10 - - - -
19/06:30am 8.5 W 3 5 1017.0 - 0.0 - - 10 - - - -
19/06:00am 8.0 NW 4 8 1016.5 - 0.0 - - 10 - - - -
19/05:30am 8.3 SSW 5 7 1016.3 - 0.0 - - 10 - - - -
19/05:00am 8.9 WNW 1 5 1016.3 - 0.0 - - 10 - - - -
19/04:30am 9.6 WSW 3 4 1016.1 - 0.0 - - 10 - - - -
19/04:00am 9.4 S 5 7 1016.1 - 0.0 - - 10 - - - -
19/03:30am 9.4 S 5 6 1016.1 - 0.0 - - 10 - - - -
19/03:00am 9.9 S 5 7 1016.1 - 0.0 - - 10 - - - -
19/02:30am 10.5 S 5 7 1016.2 - 0.0 - - 10 - - - -
19/02:00am 10.9 S 5 7 1016.2 - 0.0 - - 10 - - - -
19/01:30am 11.5 SSW 4 6 1016.1 - 0.0 - - 10 - - - -
19/01:00am 11.0 S 3 6 1016.1 - 0.0 - - 10 - - - -
19/12:30am 11.8 NNW 6 8 1016.1 - 0.0 - - 10 - - - -
19/12:00am 13.0 NNW 2 5 1015.8 - 0.0 - - 10 - - - -
 
Date/Time
EDT
Temp
°C
Wind Pressure Rain since
9am
mm
Weather Cloud Vis
km
Sea
Height
m
Swell
Dir  Spd
kts
Gust
kts
hPa Trend Height
m
Period
s
Dir
18/11:30pm 13.0 SSW 4 8 1015.8 - 0.0 - - 10 - - - -
18/11:00pm 14.3 SSE 7 10 1015.7 - 0.0 - - 10 - - - -
18/10:30pm 14.6 SE 5 9 1015.7 - 0.0 - - 10 - - - -
18/10:00pm 14.6 ESE 5 9 1015.6 - 0.0 - - 10 - - - -
18/09:30pm 14.6 ESE 5 7 1015.4 - 0.0 - - 10 - - - -
18/09:00pm 15.0 SE 5 10 1015.0 - 0.0 - - 10 - - - -
18/08:30pm 15.3 SE 5 8 1014.6 - 0.0 - - 10 - - - -
18/08:00pm 16.3 SSE 5 9 1014.2 - 0.0 - - 10 - - - -
18/07:30pm 17.1 E 6 9 1013.5 - 0.0 - - 10 - - - -
18/07:00pm 17.5 E 6 9 1013.0 - 0.0 - - 10 - - - -
18/06:30pm 17.8 E 7 11 1012.6 - 0.0 - - 10 - - - -
18/06:00pm 18.5 E 8 11 1012.0 - 0.0 - - 10 - - - -
18/05:30pm 18.8 ENE 9 14 1011.9 - 0.0 - - 10 - - - -
18/05:00pm 20.0 E 9 15 1011.2 - 0.0 - - 10 - - - -
18/04:30pm 19.3 E 12 17 1010.9 - 0.0 - - 10 - - - -
18/04:00pm 19.5 E 11 18 1010.4 - 0.0 - - 10 - - - -
18/03:30pm 19.7 SE 10 16 1010.2 - 0.0 - - 10 - - - -
18/03:00pm 20.7 ESE 11 18 1009.6 - 0.0 - - 10 - - - -
18/02:30pm 22.0 S 10 23 1009.6 - 0.0 - - 10 - - - -
18/02:00pm 22.9 SSW 9 17 1009.5 - 0.0 - - 10 - - - -
18/01:30pm 22.5 SW 8 15 1009.1 - 0.0 - - 10 - - - -
18/01:00pm 21.7 SW 12 19 1008.7 - 0.0 - - 10 - - - -
18/12:30pm 21.4 SW 15 29 1008.3 - 0.0 - Partly cloudy 10 - - - -
18/12:29pm 21.4 SW 15 29 1008.5 - 0.0 - Partly cloudy 10 - - - -
18/12:00pm 20.7 SSW 12 19 1007.8 - 0.0 - - 10 - - - -
18/11:30am 21.3 S 9 18 1007.6 - 0.0 - Partly cloudy 10 - - - -
18/11:00am 20.4 SW 12 17 1007.3 - 0.0 - Partly cloudy 10 - - - -
18/10:30am 19.7 SW 9 15 1006.8 - 0.0 - - 10 - - - -
18/10:00am 20.2 SW 9 15 1006.3 - 0.0 - - 10 - - - -
18/09:30am 18.9 SW 8 15 1006.1 - 0.0 - - 10 - - - -

Other Formats:

Comma delimited format used in spreadsheet applications
http://www.bom.gov.au/fwo/IDT60701/IDT60701.95981.axf

JavaScript Object Notation format (JSON) in row-major order
http://www.bom.gov.au/fwo/IDT60701/IDT60701.95981.json